createdAt,value
2019-04-10T00:00:47.800Z,31.63
2019-04-10T00:03:39.081Z,32.47
2019-04-10T00:06:25.837Z,31.03
2019-04-10T00:09:13.509Z,32.33
2019-04-10T00:12:01.421Z,32.60
2019-04-10T00:14:49.245Z,33.77
2019-04-10T00:17:37.507Z,33.67
2019-04-10T00:20:25.230Z,32.57
2019-04-10T00:23:13.175Z,35.23
2019-04-10T00:26:01.447Z,36.37
2019-04-10T00:28:49.772Z,40.57
2019-04-10T00:31:38.147Z,45.20
2019-04-10T00:34:26.392Z,43.87
2019-04-10T00:37:21.877Z,49.37
2019-04-10T00:40:05.566Z,49.57
2019-04-10T00:42:53.757Z,51.57
2019-04-10T00:45:41.950Z,54.90
2019-04-10T00:48:30.111Z,54.20
2019-04-10T00:51:18.083Z,55.23
2019-04-10T00:54:05.967Z,55.17
2019-04-10T00:56:53.910Z,56.40
2019-04-10T00:59:42.147Z,54.17
2019-04-10T01:02:29.963Z,56.37
2019-04-10T01:05:17.702Z,54.80
2019-04-10T01:08:06.487Z,55.60
2019-04-10T01:10:54.781Z,56.43
2019-04-10T01:13:43.119Z,56.77
2019-04-10T01:16:31.362Z,56.57
2019-04-10T01:19:19.702Z,55.83
2019-04-10T01:22:07.640Z,58.07
2019-04-10T01:24:56.268Z,57.23
2019-04-10T01:27:44.551Z,59.23
2019-04-10T01:30:32.798Z,56.40
2019-04-10T01:33:21.061Z,61.23
2019-04-10T01:36:08.958Z,59.07
2019-04-10T01:38:57.864Z,60.13
2019-04-10T01:41:46.023Z,59.37
2019-04-10T01:44:34.027Z,60.43
2019-04-10T01:47:21.686Z,60.70
2019-04-10T01:50:10.460Z,58.57
2019-04-10T01:52:59.563Z,57.97
2019-04-10T01:55:47.826Z,61.13
2019-04-10T01:58:35.552Z,60.20
2019-04-10T02:01:24.874Z,63.70
2019-04-10T02:04:13.088Z,61.40
2019-04-10T02:07:02.086Z,62.57
2019-04-10T02:09:50.515Z,63.77
2019-04-10T02:12:38.847Z,61.97
2019-04-10T02:15:26.614Z,59.70
2019-04-10T02:18:14.592Z,62.13
2019-04-10T02:21:03.320Z,57.67
2019-04-10T02:23:52.324Z,62.03
2019-04-10T02:26:41.344Z,61.93
2019-04-10T02:29:29.332Z,60.97
2019-04-10T02:32:18.395Z,61.97
2019-04-10T02:35:10.525Z,59.90
2019-04-10T02:38:04.475Z,62.97
2019-04-10T02:40:49.858Z,63.03
2019-04-10T02:43:38.088Z,59.80
2019-04-10T02:46:27.131Z,61.37
2019-04-10T02:49:16.349Z,60.40
2019-04-10T02:52:04.518Z,63.47
2019-04-10T02:54:53.751Z,64.73
2019-04-10T02:57:43.512Z,65.47
2019-04-10T03:00:31.593Z,62.73
2019-04-10T03:03:20.086Z,61.70
2019-04-10T03:06:09.136Z,60.23
2019-04-10T03:09:13.797Z,58.20
2019-04-10T03:11:47.519Z,64.27
2019-04-10T03:14:36.673Z,62.30
2019-04-10T03:17:24.817Z,60.07
2019-04-10T03:20:12.737Z,61.77
2019-04-10T03:23:01.009Z,64.03
2019-04-10T03:25:48.836Z,59.67
2019-04-10T03:28:37.088Z,62.63
2019-04-10T03:31:27.133Z,61.13
2019-04-10T03:34:18.379Z,60.70
2019-04-10T03:37:06.306Z,58.40
2019-04-10T03:39:55.249Z,62.90
2019-04-10T03:42:43.383Z,60.63
2019-04-10T03:45:31.117Z,58.27
2019-04-10T03:48:20.073Z,58.77
2019-04-10T03:51:08.255Z,58.30
2019-04-10T03:53:56.422Z,60.10
2019-04-10T03:56:44.254Z,59.63
2019-04-10T03:59:32.677Z,59.97
2019-04-10T04:02:20.556Z,58.50
2019-04-10T04:05:08.687Z,58.83
2019-04-10T04:07:57.120Z,57.67
2019-04-10T04:10:45.165Z,59.97
2019-04-10T04:13:33.342Z,58.37
2019-04-10T04:16:21.368Z,60.00
2019-04-10T04:19:10.028Z,55.90
2019-04-10T04:21:58.467Z,58.50
2019-04-10T04:24:46.324Z,57.97
2019-04-10T04:27:35.510Z,56.50
2019-04-10T04:30:24.675Z,58.43
2019-04-10T04:33:12.996Z,57.27
2019-04-10T04:36:02.010Z,58.60
2019-04-10T04:38:51.171Z,57.97
2019-04-10T04:41:40.110Z,57.70
2019-04-10T04:44:27.743Z,60.00
2019-04-10T04:47:15.741Z,57.93
2019-04-10T04:50:04.194Z,56.93
2019-04-10T04:52:52.280Z,55.47
2019-04-10T04:55:40.121Z,56.37
2019-04-10T04:58:28.439Z,52.70
2019-04-10T05:01:16.973Z,52.73
2019-04-10T05:04:05.119Z,53.80
2019-04-10T05:06:52.904Z,54.03
2019-04-10T05:09:42.134Z,53.70
2019-04-10T05:12:30.088Z,53.37
2019-04-10T05:15:18.493Z,54.47
2019-04-10T05:18:06.547Z,52.33
2019-04-10T05:20:54.702Z,52.63
2019-04-10T05:23:42.891Z,57.33
2019-04-10T05:26:30.641Z,55.47
2019-04-10T05:29:19.568Z,54.73
2019-04-10T05:32:07.472Z,55.20
2019-04-10T05:34:55.029Z,56.77
2019-04-10T05:37:43.536Z,55.77
2019-04-10T05:40:33.100Z,55.23
2019-04-10T05:43:21.978Z,54.00
2019-04-10T05:46:10.354Z,51.47
2019-04-10T05:48:58.172Z,51.63
2019-04-10T05:51:46.187Z,51.60
2019-04-10T05:54:35.313Z,47.23
2019-04-10T05:57:24.510Z,48.87
2019-04-10T06:00:14.710Z,48.53
2019-04-10T06:03:02.420Z,49.20
2019-04-10T06:05:50.795Z,50.07
2019-04-10T06:08:39.450Z,48.33
2019-04-10T06:11:27.114Z,48.03
2019-04-10T06:14:15.774Z,48.60
2019-04-10T06:17:04.258Z,46.07
2019-04-10T06:19:53.108Z,42.60
2019-04-10T06:22:41.565Z,41.37
2019-04-10T06:25:31.257Z,40.43
2019-04-10T06:28:19.522Z,37.57
2019-04-10T06:31:08.343Z,38.17
2019-04-10T06:33:56.327Z,38.33
2019-04-10T06:36:44.188Z,38.47
2019-04-10T06:39:33.089Z,39.60
2019-04-10T06:42:20.880Z,36.80
2019-04-10T06:45:09.421Z,36.40
2019-04-10T06:47:58.400Z,34.83
2019-04-10T06:50:47.363Z,35.83
2019-04-10T06:53:35.420Z,35.93
2019-04-10T06:56:23.257Z,34.93
2019-04-10T06:59:12.177Z,35.30
2019-04-10T07:02:13.129Z,34.97
2019-04-10T07:04:54.871Z,34.70
2019-04-10T07:07:49.092Z,34.97
2019-04-10T07:10:40.801Z,34.10
2019-04-10T07:13:20.004Z,34.33
2019-04-10T07:16:09.551Z,34.10
2019-04-10T07:18:59.841Z,34.63
2019-04-10T07:21:47.384Z,33.30
2019-04-10T07:24:39.079Z,34.07
2019-04-10T07:27:24.821Z,33.17
2019-04-10T07:30:13.978Z,32.90
2019-04-10T07:33:01.597Z,33.30
2019-04-10T07:35:49.950Z,34.80
2019-04-10T07:38:37.809Z,32.13
2019-04-10T07:41:26.380Z,32.73
2019-04-10T07:44:14.463Z,32.23
2019-04-10T07:47:02.735Z,33.53
2019-04-10T07:52:50.034Z,31.67
2019-04-10T07:55:37.921Z,32.73
2019-04-10T07:58:25.595Z,31.53
2019-04-10T08:01:14.066Z,32.13
2019-04-10T08:04:02.175Z,31.40
2019-04-10T08:06:50.266Z,31.13
2019-04-10T08:09:38.184Z,32.60
2019-04-10T08:12:37.545Z,32.73
2019-04-10T08:15:16.588Z,31.33
2019-04-10T08:18:04.961Z,31.03
2019-04-10T08:20:53.173Z,30.30
2019-04-10T08:23:40.816Z,30.30
2019-04-10T08:26:28.573Z,30.23
2019-04-10T08:29:16.400Z,31.60
2019-04-10T08:32:05.499Z,30.33
2019-04-10T08:34:53.534Z,32.77
2019-04-10T08:37:41.386Z,32.17
2019-04-10T08:40:30.057Z,31.53
2019-04-10T08:43:18.205Z,32.17
2019-04-10T08:46:06.067Z,31.30
2019-04-10T08:48:53.952Z,33.33
2019-04-10T08:51:41.948Z,32.17
2019-04-10T08:54:29.771Z,32.60
2019-04-10T08:57:17.377Z,31.40
2019-04-10T09:00:08.146Z,32.90
2019-04-10T09:02:56.060Z,33.23
2019-04-10T09:05:44.913Z,34.03
2019-04-10T09:08:33.024Z,32.47
2019-04-10T09:11:26.179Z,32.23
2019-04-10T09:14:10.708Z,32.27
2019-04-10T09:16:58.673Z,32.70
2019-04-10T09:26:46.639Z,31.83
2019-04-10T09:30:13.029Z,31.20
2019-04-10T09:36:15.207Z,30.57
2019-04-10T09:39:03.876Z,30.67
2019-04-10T09:58:15.186Z,29.40
2019-04-10T10:19:11.997Z,24.90
2019-04-10T10:55:47.637Z,25.20
2019-04-10T10:58:35.542Z,23.87
2019-04-10T11:01:24.149Z,24.33
2019-04-10T11:04:12.999Z,24.67
2019-04-10T11:07:01.280Z,24.57
2019-04-10T11:09:50.362Z,24.73
2019-04-10T11:12:38.413Z,23.13
2019-04-10T11:15:26.472Z,23.20
2019-04-10T11:18:14.493Z,22.90
2019-04-10T11:21:08.007Z,23.03
2019-04-10T11:23:53.217Z,22.03
2019-04-10T11:26:42.626Z,23.30
2019-04-10T11:29:31.445Z,22.77
2019-04-10T11:32:20.004Z,22.60
2019-04-10T11:35:08.193Z,22.93
2019-04-10T11:37:59.261Z,22.77
2019-04-10T11:40:45.764Z,21.17
2019-04-10T11:43:35.852Z,20.73
2019-04-10T11:46:28.254Z,20.60
2019-04-10T11:49:15.453Z,21.93
2019-04-10T11:52:04.016Z,21.43
2019-04-10T11:55:04.652Z,20.90
2019-04-10T11:57:45.903Z,22.20
2019-04-10T12:00:49.242Z,22.03
2019-04-10T12:03:31.354Z,22.30
2019-04-10T12:06:21.163Z,21.57
2019-04-10T12:09:45.271Z,20.40
2019-04-10T12:12:01.499Z,21.37
2019-04-10T12:14:50.057Z,21.27
2019-04-10T12:17:38.214Z,21.97
2019-04-10T12:20:27.090Z,22.17
2019-04-10T12:23:15.017Z,21.00
2019-04-10T12:26:03.352Z,21.67
2019-04-10T12:28:51.911Z,23.57
2019-04-10T12:31:40.002Z,23.77
2019-04-10T12:34:28.529Z,22.93
2019-04-10T12:37:17.508Z,22.73
2019-04-10T12:40:07.686Z,22.37
2019-04-10T12:42:56.633Z,23.03
2019-04-10T12:45:44.617Z,23.27
2019-04-10T12:48:32.662Z,22.70
2019-04-10T12:51:21.500Z,21.67
2019-04-10T12:54:09.989Z,20.93
2019-04-10T12:56:58.822Z,20.23
2019-04-10T12:59:47.818Z,19.93
2019-04-10T13:02:36.555Z,19.23
2019-04-10T13:05:25.126Z,20.37
2019-04-10T13:08:21.247Z,20.70
2019-04-10T13:11:02.704Z,21.00
2019-04-10T13:13:51.321Z,20.00
2019-04-10T13:16:41.145Z,20.17
2019-04-10T13:19:29.234Z,20.20
2019-04-10T13:22:17.977Z,18.93
2019-04-10T13:25:06.543Z,19.67
2019-04-10T13:27:54.940Z,20.43
2019-04-10T13:30:49.706Z,20.63
2019-04-10T13:33:32.958Z,20.20
2019-04-10T13:36:21.793Z,20.93
2019-04-10T13:39:12.886Z,20.67
2019-04-10T13:42:01.001Z,19.80
2019-04-10T13:44:48.904Z,19.13
2019-04-10T13:47:36.845Z,19.63
2019-04-10T13:50:24.700Z,19.07
2019-04-10T13:53:13.412Z,19.07
2019-04-10T13:56:01.760Z,19.17
2019-04-10T13:58:50.761Z,18.53
2019-04-10T14:01:38.507Z,19.30
2019-04-10T14:04:27.201Z,20.27
2019-04-10T14:07:15.810Z,19.77
2019-04-10T14:10:07.093Z,19.13
2019-04-10T14:12:56.403Z,18.53
2019-04-10T14:15:46.261Z,19.47
2019-04-10T14:18:34.900Z,19.37
2019-04-10T14:21:22.940Z,19.87
2019-04-10T14:24:11.765Z,19.33
2019-04-10T14:27:09.893Z,20.73
2019-04-10T15:02:43.665Z,20.97
2019-04-10T15:05:32.544Z,20.40
2019-04-10T15:08:21.767Z,18.97
2019-04-10T15:11:10.842Z,19.20
2019-04-10T15:13:59.174Z,19.07
2019-04-10T15:16:54.482Z,19.10
2019-04-10T15:19:36.688Z,19.37
2019-04-10T15:22:25.412Z,18.67
2019-04-10T15:25:13.574Z,18.43
2019-04-10T15:28:02.224Z,19.40
2019-04-10T15:30:50.818Z,18.03
2019-04-10T15:33:39.437Z,19.93
2019-04-10T15:36:28.303Z,19.37
2019-04-10T15:39:16.862Z,19.40
2019-04-10T15:42:05.796Z,19.10
2019-04-10T15:44:54.480Z,18.97
2019-04-10T15:47:50.591Z,18.40
2019-04-10T15:50:32.653Z,20.20
2019-04-10T15:53:20.268Z,18.90
2019-04-10T15:56:08.157Z,20.03
2019-04-10T15:58:56.853Z,20.27
2019-04-10T16:01:46.775Z,20.97
2019-04-10T16:04:35.793Z,21.60
2019-04-10T16:07:24.470Z,20.40
2019-04-10T16:10:32.910Z,19.50
2019-04-10T16:13:28.261Z,19.97
2019-04-10T16:16:36.918Z,21.00
2019-04-10T16:19:42.890Z,19.57
2019-04-10T16:22:33.424Z,22.67
2019-04-10T16:25:25.679Z,22.63
2019-04-10T16:28:14.535Z,22.40
2019-04-10T16:31:03.308Z,22.37
2019-04-10T16:33:52.507Z,21.73
2019-04-10T16:36:41.649Z,21.37
2019-04-10T16:39:30.011Z,21.73
2019-04-10T16:42:18.890Z,22.13
2019-04-10T16:45:07.952Z,21.50
2019-04-10T16:47:56.656Z,21.80
2019-04-10T16:50:45.683Z,20.73
2019-04-10T16:53:34.132Z,21.07
2019-04-10T16:56:21.986Z,22.13
2019-04-10T16:59:09.728Z,21.30
2019-04-10T17:01:57.560Z,21.33
2019-04-10T17:04:45.140Z,22.37
2019-04-10T17:07:32.833Z,21.47
2019-04-10T17:10:24.463Z,20.80
2019-04-10T17:13:12.239Z,21.30
2019-04-10T17:15:59.854Z,21.27
2019-04-10T17:18:47.604Z,21.43
2019-04-10T17:21:36.258Z,21.27
2019-04-10T17:24:25.069Z,22.53
2019-04-10T17:27:13.230Z,22.67
2019-04-10T17:30:01.403Z,21.80
2019-04-10T17:32:49.069Z,21.77
2019-04-10T17:35:37.916Z,21.77
2019-04-10T17:38:26.724Z,22.00
2019-04-10T17:41:15.491Z,22.00
2019-04-10T17:44:03.603Z,21.50
2019-04-10T17:46:51.500Z,22.80
2019-04-10T17:49:39.452Z,22.77
2019-04-10T17:52:27.261Z,22.23
2019-04-10T17:55:15.541Z,22.43
2019-04-10T17:58:03.429Z,21.73
2019-04-10T18:00:53.754Z,22.50
2019-04-10T18:03:49.329Z,21.87
2019-04-10T18:06:31.205Z,21.80
2019-04-10T18:09:19.238Z,21.50
2019-04-10T18:12:08.397Z,22.03
2019-04-10T18:14:59.675Z,23.50
2019-04-10T18:17:47.788Z,22.67
2019-04-10T18:23:35.533Z,22.30
2019-04-10T18:26:24.289Z,22.03
2019-04-10T18:29:12.258Z,22.80
2019-04-10T18:32:02.127Z,22.43
2019-04-10T18:34:50.222Z,23.57
2019-04-10T18:37:39.109Z,21.60
2019-04-10T18:40:27.290Z,22.17
2019-04-10T18:43:16.274Z,22.80
2019-04-10T18:46:12.267Z,22.67
2019-04-10T18:48:54.763Z,22.23
2019-04-10T18:51:42.609Z,23.03
2019-04-10T18:54:31.817Z,20.83
2019-04-10T18:57:20.169Z,22.37
2019-04-10T19:00:20.112Z,23.33
2019-04-10T19:03:13.043Z,22.37
2019-04-10T19:06:02.668Z,21.47
2019-04-10T19:09:04.699Z,23.37
2019-04-10T19:11:41.348Z,24.10
2019-04-10T19:14:30.300Z,26.27
2019-04-10T19:17:19.002Z,26.53
2019-04-10T19:20:08.919Z,26.07
2019-04-10T19:22:57.408Z,25.57
2019-04-10T19:25:45.642Z,24.87
2019-04-10T19:28:36.923Z,23.63
2019-04-10T19:31:24.837Z,24.00
2019-04-10T19:34:12.842Z,24.17
2019-04-10T19:37:00.624Z,25.20
2019-04-10T19:39:48.831Z,24.37
2019-04-10T19:42:37.644Z,26.40
2019-04-10T19:45:26.153Z,26.43
2019-04-10T19:48:15.008Z,25.63
2019-04-10T19:51:02.902Z,25.13
2019-04-10T19:53:51.211Z,24.30
2019-04-10T19:56:39.072Z,25.83
2019-04-10T19:59:27.147Z,25.73
2019-04-10T20:02:15.428Z,25.97
2019-04-10T20:05:03.915Z,26.13
2019-04-10T20:07:53.385Z,26.00
2019-04-10T20:10:41.543Z,24.53
2019-04-10T20:13:30.391Z,23.60
2019-04-10T20:16:20.112Z,23.93
2019-04-10T20:19:09.526Z,26.13
2019-04-10T20:21:58.505Z,27.17
2019-04-10T20:24:47.133Z,25.17
2019-04-10T20:27:36.159Z,24.30
2019-04-10T20:30:25.833Z,26.53
2019-04-10T20:33:20.909Z,25.97
2019-04-10T20:36:08.985Z,27.00
2019-04-10T20:38:57.088Z,25.27
2019-04-10T20:41:51.975Z,26.73
2019-04-10T20:44:34.688Z,25.87
2019-04-10T20:47:22.796Z,27.40
2019-04-10T20:50:11.942Z,23.17
2019-04-10T20:52:59.860Z,22.37
2019-04-10T20:55:48.170Z,22.07
2019-04-10T20:58:36.399Z,21.93
2019-04-10T21:01:24.561Z,22.50
2019-04-10T21:04:12.826Z,23.70
2019-04-10T21:07:00.954Z,25.03
2019-04-10T21:09:48.764Z,21.10
2019-04-10T21:12:36.621Z,20.50
2019-04-10T21:15:25.750Z,18.27
2019-04-10T21:18:13.591Z,18.50
2019-04-10T21:21:01.756Z,17.73
2019-04-10T21:23:49.650Z,19.03
2019-04-10T21:26:38.720Z,18.83
2019-04-10T21:29:44.208Z,17.23
2019-04-10T21:32:36.463Z,18.77
2019-04-10T21:35:27.112Z,17.80
2019-04-10T21:38:15.228Z,16.47
2019-04-10T21:41:05.328Z,16.90
2019-04-10T21:43:52.371Z,16.87
2019-04-10T21:46:40.992Z,18.37
2019-04-10T21:49:30.351Z,17.20
2019-04-10T21:52:18.657Z,15.73
2019-04-10T21:55:06.963Z,16.37
2019-04-10T21:57:55.440Z,14.80
2019-04-10T22:00:54.280Z,14.90
2019-04-10T22:03:41.932Z,15.23
2019-04-10T22:06:31.101Z,14.77
2019-04-10T22:09:30.547Z,14.63
2019-04-10T22:12:25.668Z,13.60
2019-04-10T22:15:14.945Z,14.13
2019-04-10T22:18:03.105Z,14.40
2019-04-10T22:20:50.757Z,13.23
2019-04-10T22:23:38.584Z,12.67
2019-04-10T22:26:26.281Z,13.63
2019-04-10T22:29:14.222Z,12.57
2019-04-10T22:32:02.044Z,11.70
2019-04-10T22:34:50.617Z,11.60
2019-04-10T22:37:38.384Z,11.80
2019-04-10T22:40:26.011Z,11.07
2019-04-10T22:43:13.813Z,10.73
2019-04-10T22:46:02.604Z,10.17
2019-04-10T22:48:50.716Z,10.60
2019-04-10T22:51:38.375Z,11.27
2019-04-10T22:54:26.246Z,10.23
2019-04-10T22:57:14.569Z,11.17
2019-04-10T23:00:03.336Z,10.50
2019-04-10T23:02:51.212Z,10.20
2019-04-10T23:05:38.809Z,10.47
2019-04-10T23:08:27.358Z,9.83
2019-04-10T23:11:15.269Z,10.67
2019-04-10T23:14:04.409Z,9.87
2019-04-10T23:16:52.599Z,9.37
2019-04-10T23:19:40.484Z,9.80
2019-04-10T23:22:29.364Z,8.87
2019-04-10T23:25:18.355Z,9.17
2019-04-10T23:28:07.334Z,9.67
2019-04-10T23:30:55.230Z,9.77
2019-04-10T23:33:44.035Z,9.33
2019-04-10T23:36:32.162Z,9.33
2019-04-10T23:39:20.072Z,9.57
2019-04-10T23:42:07.855Z,9.50
2019-04-10T23:44:57.439Z,9.20
2019-04-10T23:47:45.061Z,9.60
2019-04-10T23:50:33.084Z,8.80
2019-04-10T23:53:21.077Z,8.17
2019-04-10T23:56:08.672Z,9.63
2019-04-10T23:58:56.481Z,9.17
